Hovedside
METAR-TAF:

METAR-TAF

Lufthavner :

Kirkenes lufthavn. Høybuktmoen

Kirkenes, Norge

breddegrad: 69-44N, lengdegrad: 029-54E, høyde over havet: 9 m

Gjeldene værobservasjon

Denne rapporten ble laget for 15 minutter siden, klokken 13:20 UTC
Vind 12 kt fra Vest-sørvest
Temperatur 1°C
Luftfuktighet 59%
Trykk 1010 hPa
Sikt 10 km eller mer
ingen skyer under 1500 m og ingen bygeskyer

METAR: ENKR 221320Z 24012KT CAVOK 01/M06 Q1010 RMK WIND 731FT 24026KT

Tid: 14:35 (13:35 UTC)

Varsel

Denne rapporten ble laget for 2 timer og 35 minutter siden, klokken 11:00 UTC
Varsel gyldig fra 22. klokken 12 UTC til 22. klokken 21 UTC
Vind 18 kt fra Vest-sørvest
Sikt 10 km eller mer
Få skyer i en høyde av 3000 ft

TAF: ENKR 221100Z 2212/2221 25018KT 9999 FEW030

Værobservasjoner og værvarsel for over 4000 flyplasser (METAR- og TAF-rapporter).

Tilgjengelige stasjoner er representert av de røde og gule prikkene på kartet.

Hold musepekeren over prikken for å se navnet på stasjonen.

Klikk så for å se værobservasjoner og -varsler.

For å forandre kartet kan du klikke på den grønne knappen med svart kryss for å zoome inn, på den grønne knappen med strek for å zoome ut, eller på de grønne pilene for å se tilstøtende kart.


METAR-TAF: